logo
Search for airport 
image banner adimage banner adimage banner ad
image banner ad

FA0350 - 41 Waterglen Helistop

Located in , South Africa

ICAO - , IATA -

Data provided by Airmate  

General information

Coordinates: S25°44'59" E27°15'26"
Elevation is 4020 feet MSL.
 
View others Airports in North-West

Operational data

Special qualification required
Current time UTC:
Current local time:
Weather at : FALA - Lanseria International ( 70 km )
METAR: FALA 150800Z 01010KT 330V050 9999 FEW015 17/11 Q1029 NOSIG
TAF: TAF FALA 150400Z 1506/1606 VRB03KT CAVOK TX20/1512Z TN12/1603Z FM150800 34008KT 9999 SCT020 PROB30 TEMPO 1509/1520 5000 TSRA FEW035CB PROB30 TEMPO 1523/1606 -TSRA FEW030CB
View NOTAMs / SUP AIP / TFR affecting this airport [VIEW]
Communications frequencies: [VIEW]

Runways:

Airport contact information

Address: South Africa

Satellite view of FA0350